Time;durP1;ratioP1;P1;durP2;ratioP2;P2;SDS_P1;SDS_P2;PMS_P1;PMS_P2;Temp;Humidity;BMP_temperature;BMP_pressure;BME280_temperature;BME280_humidity;BME280_pressure;Samples;Min_cycle;Max_cycle;Signal;HPM_P1;HPM_P2
2023/08/10 00:00:15;;;;;;;8.18;2.30;;;;;;;;;;5009863;28;20040;-70
2023/08/10 00:02:42;;;;;;;9.40;2.60;;;;;;;;;;5017873;28;20423;-70
2023/08/10 00:05:09;;;;;;;8.98;2.70;;;;;;;;;;5012456;28;20026;-70
2023/08/10 00:07:36;;;;;;;9.77;2.72;;;;;;;;;;5010795;28;20025;-70
2023/08/10 00:10:03;;;;;;;8.15;2.42;;;;;;;;;;5009357;28;20104;-71
2023/08/10 00:12:29;;;;;;;9.73;2.70;;;;;;;;;;5012846;28;20329;-69
2023/08/10 00:14:55;;;;;;;7.28;2.20;;;;;;;;;;4990866;28;20041;-70
2023/08/10 00:17:21;;;;;;;7.55;2.30;;;;;;;;;;5011962;28;20036;-70
2023/08/10 00:19:48;;;;;;;7.13;2.38;;;;;;;;;;5015359;28;20776;-70
2023/08/10 00:22:14;;;;;;;7.32;2.20;;;;;;;;;;5014517;28;20040;-71
2023/08/10 00:24:40;;;;;;;7.25;2.30;;;;;;;;;;5020722;28;20114;-71
2023/08/10 00:27:07;;;;;;;8.88;2.10;;;;;;;;;;5017899;28;20150;-71
2023/08/10 00:29:33;;;;;;;6.68;2.25;;;;;;;;;;5002826;28;20029;-70
2023/08/10 00:31:59;;;;;;;7.53;2.50;;;;;;;;;;5018502;28;20029;-70
2023/08/10 00:34:26;;;;;;;9.00;2.70;;;;;;;;;;4987144;28;20672;-70
2023/08/10 00:36:52;;;;;;;7.63;2.60;;;;;;;;;;4980165;28;20484;-70
2023/08/10 00:39:18;;;;;;;8.43;3.03;;;;;;;;;;4980765;28;20076;-70
2023/08/10 00:41:44;;;;;;;8.10;2.47;;;;;;;;;;4985171;28;20675;-70
2023/08/10 00:44:11;;;;;;;7.03;2.33;;;;;;;;;;4980692;28;20576;-71
2023/08/10 00:46:37;;;;;;;6.32;2.10;;;;;;;;;;4978430;28;20121;-71
2023/08/10 00:49:04;;;;;;;6.90;2.42;;;;;;;;;;4979602;28;20463;-70
2023/08/10 00:51:30;;;;;;;8.88;2.75;;;;;;;;;;4982295;28;20038;-70
2023/08/10 00:53:57;;;;;;;6.47;2.17;;;;;;;;;;4975675;28;20034;-70
2023/08/10 00:56:23;;;;;;;7.78;2.50;;;;;;;;;;4980528;28;20204;-70
2023/08/10 00:58:50;;;;;;;7.47;2.55;;;;;;;;;;4983152;28;20531;-70
2023/08/10 01:01:17;;;;;;;6.97;2.38;;;;;;;;;;4978305;28;20097;-70
2023/08/10 01:03:43;;;;;;;9.23;2.80;;;;;;;;;;4981349;28;20712;-70
2023/08/10 01:06:29;;;;;;;10.45;2.85;;;;;;;;;;4979316;28;20558;-70
2023/08/10 01:08:56;;;;;;;9.40;2.85;;;;;;;;;;4974071;28;20038;-70
2023/08/10 01:11:36;;;;;;;8.75;2.25;;;;;;;;;;4979984;28;20033;-70
2023/08/10 01:14:07;;;;;;;8.75;2.88;;;;;;;;;;4979550;28;20369;-69
2023/08/10 01:16:34;;;;;;;6.60;2.50;;;;;;;;;;4977900;28;20346;-70
2023/08/10 01:19:01;;;;;;;7.38;2.33;;;;;;;;;;4975913;28;20041;-72
2023/08/10 01:21:31;;;;;;;6.78;2.30;;;;;;;;;;4980257;28;20040;-71
2023/08/10 01:24:02;;;;;;;7.55;2.38;;;;;;;;;;4976627;28;20022;-69
2023/08/10 01:26:28;;;;;;;8.13;2.33;;;;;;;;;;4981171;28;20092;-69
2023/08/10 01:28:55;;;;;;;9.20;2.28;;;;;;;;;;4979415;28;20362;-70
2023/08/10 01:31:21;;;;;;;7.88;2.25;;;;;;;;;;4976648;28;20046;-70
2023/08/10 01:33:48;;;;;;;9.00;2.38;;;;;;;;;;4991269;28;20037;-70
2023/08/10 01:36:14;;;;;;;8.45;2.92;;;;;;;;;;5018615;28;20037;-71
2023/08/10 01:38:40;;;;;;;7.90;2.58;;;;;;;;;;5017694;28;20029;-70
2023/08/10 01:41:07;;;;;;;10.32;2.75;;;;;;;;;;5018282;28;20076;-70
2023/08/10 01:43:33;;;;;;;10.00;2.95;;;;;;;;;;5020028;28;20028;-70
2023/08/10 01:46:00;;;;;;;7.22;2.20;;;;;;;;;;5015236;28;20907;-70
2023/08/10 01:48:30;;;;;;;6.53;1.95;;;;;;;;;;5020399;28;20036;-69
2023/08/10 01:50:57;;;;;;;9.55;2.80;;;;;;;;;;5019514;28;20032;-70
2023/08/10 01:53:29;;;;;;;8.20;2.72;;;;;;;;;;5021551;28;20229;-70
2023/08/10 01:55:55;;;;;;;10.40;3.20;;;;;;;;;;5016155;28;20104;-70
2023/08/10 01:58:21;;;;;;;8.70;2.92;;;;;;;;;;5020665;28;20368;-70
2023/08/10 02:00:47;;;;;;;7.28;2.80;;;;;;;;;;5018565;28;20030;-69
2023/08/10 02:03:14;;;;;;;8.35;2.83;;;;;;;;;;5014954;28;20037;-70
2023/08/10 02:05:40;;;;;;;10.18;2.78;;;;;;;;;;5018335;28;20044;-69
2023/08/10 02:08:07;;;;;;;8.43;2.40;;;;;;;;;;4999933;28;20045;-69
2023/08/10 02:10:33;;;;;;;9.50;2.67;;;;;;;;;;5019383;28;20025;-70
2023/08/10 02:12:59;;;;;;;9.30;2.80;;;;;;;;;;5000520;28;20040;-69
2023/08/10 02:15:26;;;;;;;8.63;2.85;;;;;;;;;;5017932;28;20667;-70
2023/08/10 02:17:52;;;;;;;8.63;2.30;;;;;;;;;;5018675;28;20136;-70
2023/08/10 02:20:18;;;;;;;8.15;2.50;;;;;;;;;;5019801;28;20381;-70
2023/08/10 02:22:54;;;;;;;8.45;2.35;;;;;;;;;;4999167;28;20050;-69
2023/08/10 02:25:22;;;;;;;7.95;2.20;;;;;;;;;;5018009;28;20256;-69
2023/08/10 02:27:50;;;;;;;9.57;2.13;;;;;;;;;;4999610;28;20660;-70
2023/08/10 02:30:16;;;;;;;7.65;2.40;;;;;;;;;;5016279;28;20025;-69
2023/08/10 02:32:42;;;;;;;7.32;2.35;;;;;;;;;;5020889;28;20033;-70
2023/08/10 02:35:09;;;;;;;9.77;2.65;;;;;;;;;;5016237;28;20049;-70
2023/08/10 02:37:35;;;;;;;6.45;2.35;;;;;;;;;;5018221;28;20447;-71
2023/08/10 02:40:06;;;;;;;9.98;2.53;;;;;;;;;;5013452;28;20037;-70
2023/08/10 02:42:32;;;;;;;9.88;2.50;;;;;;;;;;5018728;28;20333;-69
2023/08/10 02:44:58;;;;;;;10.77;2.60;;;;;;;;;;5016863;28;20025;-69
2023/08/10 02:47:25;;;;;;;7.53;2.40;;;;;;;;;;5020796;28;20032;-69
2023/08/10 02:49:51;;;;;;;9.00;2.53;;;;;;;;;;5015403;28;20032;-71
2023/08/10 02:52:18;;;;;;;6.53;2.33;;;;;;;;;;5014162;28;20067;-70
2023/08/10 02:54:44;;;;;;;8.27;2.50;;;;;;;;;;5001950;28;20029;-69
2023/08/10 02:57:10;;;;;;;7.65;2.03;;;;;;;;;;5015864;28;20281;-69
2023/08/10 02:59:36;;;;;;;8.07;2.42;;;;;;;;;;5002289;28;20528;-71
2023/08/10 03:02:03;;;;;;;7.10;2.30;;;;;;;;;;5015640;28;20029;-69
2023/08/10 03:04:29;;;;;;;7.57;2.40;;;;;;;;;;5016701;28;20040;-71
2023/08/10 03:06:55;;;;;;;7.40;2.20;;;;;;;;;;5017733;28;20133;-71
2023/08/10 03:09:21;;;;;;;5.85;2.03;;;;;;;;;;5016104;28;20029;-71
2023/08/10 03:11:48;;;;;;;9.70;2.33;;;;;;;;;;5017830;28;20065;-71
2023/08/10 03:14:14;;;;;;;8.70;2.40;;;;;;;;;;5015571;28;20112;-70
2023/08/10 03:16:41;;;;;;;8.10;2.20;;;;;;;;;;5017823;28;20186;-70
2023/08/10 03:19:07;;;;;;;10.15;2.50;;;;;;;;;;5014192;28;20025;-69
2023/08/10 03:21:33;;;;;;;10.23;2.80;;;;;;;;;;5014620;28;20071;-70
2023/08/10 03:23:59;;;;;;;7.32;2.33;;;;;;;;;;5017102;28;20237;-70
2023/08/10 03:26:25;;;;;;;7.43;2.45;;;;;;;;;;5017453;28;20030;-70
2023/08/10 03:28:51;;;;;;;7.78;2.40;;;;;;;;;;5018197;28;20029;-70
2023/08/10 03:31:18;;;;;;;7.88;2.30;;;;;;;;;;5019712;28;20513;-69
2023/08/10 03:33:44;;;;;;;9.93;2.20;;;;;;;;;;5021200;28;20072;-69
2023/08/10 03:36:10;;;;;;;8.00;2.60;;;;;;;;;;5003705;28;20033;-70
2023/08/10 03:38:36;;;;;;;8.73;2.45;;;;;;;;;;5023576;28;20076;-69
2023/08/10 03:41:02;;;;;;;8.70;2.22;;;;;;;;;;5001072;28;20045;-69
2023/08/10 03:43:29;;;;;;;7.35;2.35;;;;;;;;;;5025570;28;20025;-69
2023/08/10 03:45:55;;;;;;;12.30;2.95;;;;;;;;;;5017608;28;20024;-69
2023/08/10 03:48:21;;;;;;;9.23;2.63;;;;;;;;;;5021691;28;20118;-70
2023/08/10 03:50:47;;;;;;;8.50;2.70;;;;;;;;;;5001105;28;20482;-70
2023/08/10 03:53:13;;;;;;;10.00;2.35;;;;;;;;;;5018668;28;20048;-69
2023/08/10 03:55:39;;;;;;;9.80;2.40;;;;;;;;;;4999748;28;20030;-70
2023/08/10 03:58:05;;;;;;;9.98;2.63;;;;;;;;;;5019014;28;20112;-70
2023/08/10 04:00:32;;;;;;;11.27;2.70;;;;;;;;;;5020060;28;20224;-70
2023/08/10 04:02:58;;;;;;;8.82;2.42;;;;;;;;;;5020321;28;20033;-70
2023/08/10 04:05:24;;;;;;;9.90;2.30;;;;;;;;;;5019074;28;20091;-71
2023/08/10 04:07:50;;;;;;;10.10;2.60;;;;;;;;;;5021779;28;20124;-71
2023/08/10 04:10:16;;;;;;;9.45;2.95;;;;;;;;;;5016397;28;20562;-71
2023/08/10 04:12:42;;;;;;;10.40;3.50;;;;;;;;;;5021410;28;20056;-69
2023/08/10 04:15:08;;;;;;;11.15;3.25;;;;;;;;;;5020032;28;20353;-70
2023/08/10 04:17:36;;;;;;;10.35;3.17;;;;;;;;;;5020374;28;20021;-70
2023/08/10 04:20:06;;;;;;;7.88;2.58;;;;;;;;;;5004353;28;20031;-70
2023/08/10 04:22:32;;;;;;;11.05;3.03;;;;;;;;;;5021771;28;20033;-71
2023/08/10 04:24:58;;;;;;;9.50;2.40;;;;;;;;;;5019158;28;20119;-69
2023/08/10 04:27:24;;;;;;;9.27;2.78;;;;;;;;;;5019772;28;20033;-70
2023/08/10 04:29:50;;;;;;;8.82;2.60;;;;;;;;;;5002441;28;20392;-70
2023/08/10 04:32:16;;;;;;;10.80;2.65;;;;;;;;;;5000203;28;20036;-69
2023/08/10 04:34:43;;;;;;;11.68;2.50;;;;;;;;;;4998265;28;20064;-70
2023/08/10 04:37:09;;;;;;;9.32;2.58;;;;;;;;;;5015510;28;20135;-70
2023/08/10 04:39:35;;;;;;;7.97;2.50;;;;;;;;;;5004826;28;20029;-70
2023/08/10 04:42:01;;;;;;;10.32;2.72;;;;;;;;;;5017440;28;20365;-71
2023/08/10 04:44:28;;;;;;;9.00;2.70;;;;;;;;;;5022311;28;20139;-70
2023/08/10 04:46:54;;;;;;;8.50;2.40;;;;;;;;;;5017822;28;20496;-69
2023/08/10 04:49:20;;;;;;;8.27;2.42;;;;;;;;;;5021396;28;20090;-70
2023/08/10 04:51:46;;;;;;;8.98;3.00;;;;;;;;;;5005758;28;20036;-70
2023/08/10 04:54:13;;;;;;;11.93;2.80;;;;;;;;;;5016462;28;20051;-70
2023/08/10 04:56:39;;;;;;;12.60;3.20;;;;;;;;;;5005870;28;20033;-69
2023/08/10 04:59:05;;;;;;;9.18;2.92;;;;;;;;;;5016921;28;20117;-70
2023/08/10 05:01:31;;;;;;;11.48;2.70;;;;;;;;;;5019108;28;20063;-71
2023/08/10 05:03:59;;;;;;;10.43;2.88;;;;;;;;;;5016758;28;20432;-70
2023/08/10 05:06:25;;;;;;;9.38;2.75;;;;;;;;;;5018724;28;20037;-70
2023/08/10 05:08:51;;;;;;;12.40;2.75;;;;;;;;;;5006547;28;20562;-70
2023/08/10 05:11:17;;;;;;;9.25;2.63;;;;;;;;;;5018888;28;20032;-70
2023/08/10 05:13:43;;;;;;;9.27;2.60;;;;;;;;;;5017391;28;20026;-70
2023/08/10 05:16:09;;;;;;;10.70;2.63;;;;;;;;;;5017454;28;20047;-70
2023/08/10 05:18:36;;;;;;;12.07;2.78;;;;;;;;;;5017771;28;20032;-70
2023/08/10 05:21:02;;;;;;;10.52;2.58;;;;;;;;;;5001861;28;20037;-71
2023/08/10 05:23:28;;;;;;;9.48;2.85;;;;;;;;;;5020657;28;20033;-70
2023/08/10 05:25:55;;;;;;;8.90;2.92;;;;;;;;;;5018379;28;20250;-70
2023/08/10 05:28:21;;;;;;;9.30;3.03;;;;;;;;;;5020796;28;20029;-70
2023/08/10 05:30:47;;;;;;;9.75;2.90;;;;;;;;;;5019324;28;20061;-70
2023/08/10 05:33:13;;;;;;;12.27;3.05;;;;;;;;;;5016084;28;20727;-71
2023/08/10 05:35:40;;;;;;;12.07;3.25;;;;;;;;;;5005927;28;20041;-71
2023/08/10 05:38:08;;;;;;;10.43;3.33;;;;;;;;;;4986318;28;20352;-71
2023/08/10 05:40:34;;;;;;;10.20;2.95;;;;;;;;;;5023248;28;20488;-70
2023/08/10 05:43:00;;;;;;;9.43;3.03;;;;;;;;;;5014129;28;20030;-71
2023/08/10 05:45:27;;;;;;;10.10;2.92;;;;;;;;;;5013482;28;20597;-69
2023/08/10 05:47:53;;;;;;;8.27;2.70;;;;;;;;;;5014330;28;20366;-69
2023/08/10 05:50:19;;;;;;;9.35;2.60;;;;;;;;;;5022137;28;20037;-70
2023/08/10 05:52:46;;;;;;;9.70;2.78;;;;;;;;;;5018230;28;20060;-70
2023/08/10 05:55:13;;;;;;;9.55;2.92;;;;;;;;;;5017031;28;21166;-70
2023/08/10 05:57:39;;;;;;;8.70;2.80;;;;;;;;;;5016680;28;20419;-70
2023/08/10 06:00:06;;;;;;;11.23;3.53;;;;;;;;;;5018025;28;20522;-70
2023/08/10 06:02:32;;;;;;;10.13;2.83;;;;;;;;;;5017428;28;20412;-70
2023/08/10 06:04:59;;;;;;;15.32;3.45;;;;;;;;;;5012378;28;20503;-71
2023/08/10 06:07:25;;;;;;;10.05;3.20;;;;;;;;;;5018202;28;20078;-70
2023/08/10 06:09:51;;;;;;;12.13;3.45;;;;;;;;;;5017086;28;20029;-70
2023/08/10 06:12:18;;;;;;;10.55;2.92;;;;;;;;;;5001287;28;20343;-70
2023/08/10 06:14:44;;;;;;;11.77;3.47;;;;;;;;;;5016583;28;20098;-70
2023/08/10 06:17:11;;;;;;;10.43;3.05;;;;;;;;;;5016002;28;20036;-70
2023/08/10 06:19:38;;;;;;;12.82;3.90;;;;;;;;;;5020557;28;20028;-70
2023/08/10 06:22:04;;;;;;;12.35;3.25;;;;;;;;;;5010736;28;20660;-70
2023/08/10 06:24:30;;;;;;;10.30;3.25;;;;;;;;;;5013067;28;20025;-71
2023/08/10 06:26:56;;;;;;;11.48;3.15;;;;;;;;;;5015658;28;20043;-70
2023/08/10 06:29:22;;;;;;;10.73;2.90;;;;;;;;;;5002994;28;20029;-70
2023/08/10 06:31:49;;;;;;;10.70;2.95;;;;;;;;;;5013920;28;20029;-72
2023/08/10 06:34:16;;;;;;;10.88;2.90;;;;;;;;;;5018809;28;20067;-70
2023/08/10 06:36:42;;;;;;;12.35;2.78;;;;;;;;;;5002013;28;20037;-69
2023/08/10 06:39:10;;;;;;;10.90;2.90;;;;;;;;;;5017252;28;20037;-70
2023/08/10 06:41:36;;;;;;;9.93;2.70;;;;;;;;;;5020808;28;20144;-71
2023/08/10 06:44:06;;;;;;;9.52;2.85;;;;;;;;;;5015410;28;20080;-70
2023/08/10 06:46:32;;;;;;;9.82;2.72;;;;;;;;;;5018861;28;20037;-70
2023/08/10 06:48:58;;;;;;;10.65;2.55;;;;;;;;;;5015966;28;20132;-70
2023/08/10 06:51:25;;;;;;;10.35;2.78;;;;;;;;;;5015948;28;20083;-71
2023/08/10 06:53:51;;;;;;;10.02;2.75;;;;;;;;;;5018314;28;20040;-70
2023/08/10 06:56:17;;;;;;;9.73;2.80;;;;;;;;;;5016070;28;20035;-70
2023/08/10 06:58:43;;;;;;;11.88;2.97;;;;;;;;;;5020268;28;20013;-70
2023/08/10 07:01:09;;;;;;;9.85;2.63;;;;;;;;;;5015561;28;20563;-71
2023/08/10 07:03:35;;;;;;;9.00;2.65;;;;;;;;;;5020610;28;20551;-70
2023/08/10 07:06:02;;;;;;;8.50;2.67;;;;;;;;;;5020191;28;21302;-70
2023/08/10 07:08:28;;;;;;;8.63;2.45;;;;;;;;;;5015663;28;20028;-70
2023/08/10 07:10:54;;;;;;;10.30;2.38;;;;;;;;;;5017407;28;21111;-71
2023/08/10 07:13:20;;;;;;;7.78;2.05;;;;;;;;;;5016001;28;20025;-71
2023/08/10 07:15:46;;;;;;;9.57;2.40;;;;;;;;;;5022953;28;20029;-71
2023/08/10 07:18:14;;;;;;;8.15;2.55;;;;;;;;;;5014781;28;20029;-71
2023/08/10 07:20:40;;;;;;;8.40;2.33;;;;;;;;;;5019436;28;20025;-71
2023/08/10 07:23:07;;;;;;;9.02;2.20;;;;;;;;;;5013591;28;20041;-71
2023/08/10 07:25:33;;;;;;;10.48;2.78;;;;;;;;;;5022268;28;20498;-70
2023/08/10 07:27:59;;;;;;;10.40;2.30;;;;;;;;;;5019582;28;20033;-72
2023/08/10 07:30:25;;;;;;;8.60;2.30;;;;;;;;;;5021592;28;20021;-71
2023/08/10 07:32:51;;;;;;;9.07;2.20;;;;;;;;;;4998229;28;20494;-71
2023/08/10 07:35:19;;;;;;;13.30;3.05;;;;;;;;;;5019625;28;20041;-71
2023/08/10 07:37:48;;;;;;;12.25;2.45;;;;;;;;;;5023298;28;20041;-71
2023/08/10 07:40:14;;;;;;;10.05;2.42;;;;;;;;;;5019670;28;20345;-71
2023/08/10 07:42:40;;;;;;;9.43;2.50;;;;;;;;;;4999114;28;20152;-71
2023/08/10 07:45:10;;;;;;;10.38;2.63;;;;;;;;;;5015139;28;20501;-71
2023/08/10 07:47:37;;;;;;;9.13;2.65;;;;;;;;;;5001977;28;20152;-70
2023/08/10 07:50:04;;;;;;;10.73;2.30;;;;;;;;;;5017374;28;20041;-70
2023/08/10 07:52:30;;;;;;;9.50;2.40;;;;;;;;;;5000020;28;20142;-70
2023/08/10 07:54:56;;;;;;;9.20;2.60;;;;;;;;;;5018281;28;20439;-72
2023/08/10 07:57:22;;;;;;;10.25;2.60;;;;;;;;;;5003056;28;20349;-70
2023/08/10 07:59:48;;;;;;;11.13;2.58;;;;;;;;;;5023581;28;20044;-70
2023/08/10 08:02:15;;;;;;;9.20;2.33;;;;;;;;;;5000246;28;20450;-70
2023/08/10 08:04:41;;;;;;;9.82;2.45;;;;;;;;;;5003048;28;20990;-71
2023/08/10 08:07:07;;;;;;;11.38;3.40;;;;;;;;;;5014184;28;20029;-70
2023/08/10 08:09:33;;;;;;;12.52;4.72;;;;;;;;;;5001622;28;20136;-72
2023/08/10 08:11:59;;;;;;;9.13;2.22;;;;;;;;;;5016216;28;20718;-70
2023/08/10 08:14:25;;;;;;;9.63;2.30;;;;;;;;;;5016289;28;20025;-70
2023/08/10 08:16:51;;;;;;;10.43;2.00;;;;;;;;;;5017929;28;20592;-70
2023/08/10 08:19:18;;;;;;;10.27;2.45;;;;;;;;;;5026310;28;20420;-71
2023/08/10 08:21:48;;;;;;;7.45;2.08;;;;;;;;;;5020450;28;20076;-71
2023/08/10 08:24:14;;;;;;;10.75;2.17;;;;;;;;;;5019063;28;20033;-71
2023/08/10 08:26:41;;;;;;;11.15;2.42;;;;;;;;;;5022138;28;20075;-70
2023/08/10 08:29:07;;;;;;;9.07;2.42;;;;;;;;;;5005912;28;20443;-72
2023/08/10 08:31:34;;;;;;;8.35;1.95;;;;;;;;;;5024184;28;20036;-71
2023/08/10 08:34:01;;;;;;;10.60;2.13;;;;;;;;;;5018343;28;20063;-72
2023/08/10 08:36:27;;;;;;;9.75;2.20;;;;;;;;;;5023319;28;20250;-71
2023/08/10 08:38:53;;;;;;;8.80;2.20;;;;;;;;;;5017965;28;20036;-72
2023/08/10 08:41:21;;;;;;;11.25;2.20;;;;;;;;;;4999464;28;20033;-71
2023/08/10 08:43:48;;;;;;;10.40;2.30;;;;;;;;;;5002804;28;20026;-70
2023/08/10 08:46:16;;;;;;;9.77;2.10;;;;;;;;;;5023614;28;20033;-71
2023/08/10 08:48:43;;;;;;;7.30;2.00;;;;;;;;;;5002396;28;20154;-70
2023/08/10 08:51:09;;;;;;;13.63;2.22;;;;;;;;;;5020859;28;20056;-70
2023/08/10 08:53:37;;;;;;;9.50;2.20;;;;;;;;;;5023510;28;20352;-71
2023/08/10 08:56:04;;;;;;;9.23;2.58;;;;;;;;;;5019819;28;20043;-71
2023/08/10 08:58:30;;;;;;;10.20;1.98;;;;;;;;;;5004420;28;20043;-72
2023/08/10 09:00:56;;;;;;;12.38;2.53;;;;;;;;;;5020520;28;20479;-71
2023/08/10 09:03:24;;;;;;;8.45;2.17;;;;;;;;;;5020659;28;20640;-71
2023/08/10 09:05:50;;;;;;;9.35;2.13;;;;;;;;;;5002604;28;20130;-70
2023/08/10 09:08:16;;;;;;;8.57;2.10;;;;;;;;;;5019338;28;20117;-71
2023/08/10 09:10:45;;;;;;;10.40;2.28;;;;;;;;;;5022976;28;20037;-71
2023/08/10 09:13:12;;;;;;;9.55;2.30;;;;;;;;;;5019274;28;20025;-71
2023/08/10 09:15:38;;;;;;;15.15;2.50;;;;;;;;;;5022339;28;20140;-70
2023/08/10 09:18:05;;;;;;;8.40;2.28;;;;;;;;;;5004831;28;20328;-71
2023/08/10 09:20:31;;;;;;;9.77;2.20;;;;;;;;;;5021620;28;20028;-71
2023/08/10 09:22:59;;;;;;;7.07;1.90;;;;;;;;;;5002526;28;20056;-70
2023/08/10 09:25:26;;;;;;;8.13;2.00;;;;;;;;;;5024024;28;20550;-72
2023/08/10 09:27:53;;;;;;;9.05;1.98;;;;;;;;;;5020650;28;20044;-71
2023/08/10 09:30:20;;;;;;;7.25;1.80;;;;;;;;;;5023987;28;20025;-71
2023/08/10 09:32:46;;;;;;;11.27;1.85;;;;;;;;;;5018206;28;20231;-72
2023/08/10 09:35:16;;;;;;;8.90;1.90;;;;;;;;;;5021670;28;20114;-72
2023/08/10 09:37:44;;;;;;;10.50;2.00;;;;;;;;;;5021034;28;20025;-71
2023/08/10 09:40:11;;;;;;;10.15;1.90;;;;;;;;;;5020740;28;20017;-71
2023/08/10 09:42:38;;;;;;;8.27;1.90;;;;;;;;;;5021683;28;20029;-71
2023/08/10 09:45:06;;;;;;;9.75;2.00;;;;;;;;;;5021129;28;20467;-71
2023/08/10 09:47:36;;;;;;;10.13;2.22;;;;;;;;;;5001973;28;20033;-71
2023/08/10 09:50:04;;;;;;;12.30;2.20;;;;;;;;;;5017221;28;20222;-71
2023/08/10 09:52:31;;;;;;;10.52;2.40;;;;;;;;;;5021805;28;20037;-71
2023/08/10 09:54:57;;;;;;;9.60;2.20;;;;;;;;;;5021375;28;20029;-73
2023/08/10 09:57:25;;;;;;;9.13;2.17;;;;;;;;;;5022639;28;20136;-71
2023/08/10 09:59:53;;;;;;;10.07;2.17;;;;;;;;;;5023942;28;20353;-71
2023/08/10 10:02:22;;;;;;;7.18;1.70;;;;;;;;;;5019020;28;20343;-71
2023/08/10 10:04:49;;;;;;;8.90;2.10;;;;;;;;;;5006460;28;20159;-71
2023/08/10 10:07:19;;;;;;;9.50;2.17;;;;;;;;;;5018048;28;20229;-72
2023/08/10 10:09:47;;;;;;;8.35;2.13;;;;;;;;;;5022882;28;20032;-71
2023/08/10 10:12:14;;;;;;;8.15;1.98;;;;;;;;;;5018160;28;20410;-72
2023/08/10 10:14:42;;;;;;;7.82;2.10;;;;;;;;;;5001439;28;20167;-71
2023/08/10 10:17:11;;;;;;;10.05;2.30;;;;;;;;;;5016481;28;20388;-71
2023/08/10 10:19:39;;;;;;;9.65;2.17;;;;;;;;;;5023914;28;20206;-71
2023/08/10 10:22:05;;;;;;;6.75;1.75;;;;;;;;;;5020894;28;20029;-71
2023/08/10 10:24:32;;;;;;;12.23;2.25;;;;;;;;;;5024470;28;20120;-71
2023/08/10 10:26:58;;;;;;;10.80;2.35;;;;;;;;;;5020679;28;20033;-72
2023/08/10 10:29:35;;;;;;;9.32;1.85;;;;;;;;;;5020605;28;20032;-72
2023/08/10 10:32:20;;;;;;;9.10;2.00;;;;;;;;;;5018224;28;20041;-71
2023/08/10 10:34:47;;;;;;;11.85;1.95;;;;;;;;;;5023038;28;20464;-71
2023/08/10 10:37:14;;;;;;;7.03;1.70;;;;;;;;;;5019938;28;20490;-72
2023/08/10 10:39:41;;;;;;;7.47;2.00;;;;;;;;;;5005201;28;20549;-72
2023/08/10 10:42:15;;;;;;;13.35;2.20;;;;;;;;;;5001509;28;20120;-71
2023/08/10 10:45:14;;;;;;;9.85;2.30;;;;;;;;;;5018756;28;20021;-72
2023/08/10 10:47:48;;;;;;;8.45;2.17;;;;;;;;;;5019814;28;20048;-72
2023/08/10 10:50:21;;;;;;;8.07;2.10;;;;;;;;;;5017102;28;20025;-71
2023/08/10 10:52:54;;;;;;;10.20;2.00;;;;;;;;;;5021783;28;20327;-71
2023/08/10 10:55:21;;;;;;;8.10;1.90;;;;;;;;;;5020417;28;20018;-72
2023/08/10 10:57:49;;;;;;;9.10;1.63;;;;;;;;;;5021880;28;20029;-71
2023/08/10 11:00:16;;;;;;;10.18;2.05;;;;;;;;;;5003397;28;20036;-73
2023/08/10 11:02:43;;;;;;;8.48;2.00;;;;;;;;;;5008456;28;20522;-71
2023/08/10 11:05:16;;;;;;;10.15;2.30;;;;;;;;;;5018163;28;20106;-71
2023/08/10 11:07:43;;;;;;;8.80;1.92;;;;;;;;;;5020022;28;20440;-71
2023/08/10 11:10:10;;;;;;;9.85;2.13;;;;;;;;;;5014057;28;20075;-71
2023/08/10 11:12:39;;;;;;;8.50;1.80;;;;;;;;;;5020001;28;20122;-72
2023/08/10 11:15:10;;;;;;;8.10;2.20;;;;;;;;;;5016909;28;20034;-72
2023/08/10 11:17:37;;;;;;;8.48;1.88;;;;;;;;;;5007217;28;20402;-72
2023/08/10 11:20:15;;;;;;;9.40;1.95;;;;;;;;;;5016798;28;20483;-72
2023/08/10 11:22:45;;;;;;;5.72;1.63;;;;;;;;;;5004433;28;20492;-71
2023/08/10 11:25:37;;;;;;;8.73;2.08;;;;;;;;;;5020157;28;20114;-71
2023/08/10 11:28:03;;;;;;;7.85;1.90;;;;;;;;;;5014833;28;20494;-71
2023/08/10 11:30:30;;;;;;;8.05;2.08;;;;;;;;;;5004961;28;20083;-71
2023/08/10 11:32:56;;;;;;;7.68;1.95;;;;;;;;;;5015478;28;20045;-70
2023/08/10 11:35:24;;;;;;;9.48;2.10;;;;;;;;;;5020421;28;20041;-73
2023/08/10 11:37:50;;;;;;;10.02;2.20;;;;;;;;;;5020162;28;20396;-72
2023/08/10 11:40:16;;;;;;;8.43;2.00;;;;;;;;;;5021558;28;20021;-70
2023/08/10 11:42:49;;;;;;;8.68;2.03;;;;;;;;;;5019083;28;20259;-71
2023/08/10 11:45:20;;;;;;;10.95;2.05;;;;;;;;;;4999753;28;20029;-72
2023/08/10 11:47:58;;;;;;;7.97;1.95;;;;;;;;;;5018388;28;20029;-71
2023/08/10 11:50:29;;;;;;;7.35;1.92;;;;;;;;;;5023879;28;20032;-73
2023/08/10 11:52:58;;;;;;;12.02;2.00;;;;;;;;;;5021013;28;20037;-71
2023/08/10 11:55:27;;;;;;;8.80;2.05;;;;;;;;;;5004830;28;20154;-72
2023/08/10 11:57:58;;;;;;;8.80;1.88;;;;;;;;;;5024838;28;20030;-72
2023/08/10 12:00:30;;;;;;;9.18;1.77;;;;;;;;;;5023666;28;20474;-71
2023/08/10 12:03:15;;;;;;;8.20;2.00;;;;;;;;;;5019578;28;20353;-72
2023/08/10 12:06:07;;;;;;;9.20;1.80;;;;;;;;;;5011597;28;20559;-71
2023/08/10 12:08:38;;;;;;;9.40;1.70;;;;;;;;;;5002740;28;20688;-72
2023/08/10 12:11:04;;;;;;;9.38;2.15;;;;;;;;;;5006695;28;20064;-72
2023/08/10 12:13:31;;;;;;;6.82;1.80;;;;;;;;;;5012033;28;20391;-73
2023/08/10 12:15:58;;;;;;;9.10;2.25;;;;;;;;;;5006468;28;20483;-72
2023/08/10 12:18:25;;;;;;;6.90;1.67;;;;;;;;;;5011082;28;20475;-71
2023/08/10 12:20:52;;;;;;;9.20;2.20;;;;;;;;;;5010377;28;20889;-70
2023/08/10 12:23:19;;;;;;;9.13;2.22;;;;;;;;;;5016534;28;20063;-72
2023/08/10 12:25:52;;;;;;;10.10;2.03;;;;;;;;;;5006923;28;20088;-71
2023/08/10 12:28:19;;;;;;;10.32;2.10;;;;;;;;;;5010247;28;20117;-72
2023/08/10 12:30:45;;;;;;;8.82;2.15;;;;;;;;;;5012224;28;20237;-72
2023/08/10 12:33:12;;;;;;;11.15;1.80;;;;;;;;;;5012398;28;20435;-72
2023/08/10 12:35:39;;;;;;;9.57;2.00;;;;;;;;;;4988039;28;20490;-71
2023/08/10 12:38:05;;;;;;;11.43;2.30;;;;;;;;;;4969880;28;20026;-72
2023/08/10 12:40:32;;;;;;;9.65;2.33;;;;;;;;;;4975935;28;20927;-72
2023/08/10 12:43:01;;;;;;;7.95;2.25;;;;;;;;;;4970797;28;20045;-72
2023/08/10 12:45:27;;;;;;;9.18;2.20;;;;;;;;;;4969914;28;20180;-72
2023/08/10 12:47:59;;;;;;;8.52;2.30;;;;;;;;;;4968261;28;20066;-71
2023/08/10 12:50:25;;;;;;;9.32;2.20;;;;;;;;;;4970291;28;20042;-71
2023/08/10 12:52:52;;;;;;;10.13;1.95;;;;;;;;;;4972661;28;20519;-72
2023/08/10 12:55:18;;;;;;;10.10;2.55;;;;;;;;;;4983669;28;20500;-71
2023/08/10 12:57:45;;;;;;;10.07;2.13;;;;;;;;;;4973532;28;20128;-73
2023/08/10 13:00:15;;;;;;;10.65;2.40;;;;;;;;;;4971459;28;20144;-73
2023/08/10 13:02:43;;;;;;;6.78;1.92;;;;;;;;;;4970164;28;20133;-73
2023/08/10 13:05:09;;;;;;;11.48;2.13;;;;;;;;;;4988755;28;20034;-73
2023/08/10 13:07:36;;;;;;;7.93;2.50;;;;;;;;;;4970175;28;20540;-73
2023/08/10 13:10:03;;;;;;;9.32;2.20;;;;;;;;;;4971887;28;20042;-72
2023/08/10 13:12:30;;;;;;;10.10;2.10;;;;;;;;;;4977801;28;20030;-72
2023/08/10 13:14:56;;;;;;;9.20;2.20;;;;;;;;;;4970509;28;20034;-72
2023/08/10 13:17:23;;;;;;;8.93;2.17;;;;;;;;;;4971644;28;20395;-71
2023/08/10 13:19:49;;;;;;;7.30;1.80;;;;;;;;;;4974280;28;20026;-72
2023/08/10 13:22:15;;;;;;;9.75;2.20;;;;;;;;;;4989755;28;20092;-72
2023/08/10 13:24:42;;;;;;;10.10;2.03;;;;;;;;;;4975751;28;20379;-72
2023/08/10 13:27:08;;;;;;;7.65;2.03;;;;;;;;;;4971852;28;20360;-72
2023/08/10 13:29:34;;;;;;;11.48;2.40;;;;;;;;;;4995048;28;20023;-72
2023/08/10 13:32:00;;;;;;;8.50;2.00;;;;;;;;;;4967690;28;20057;-71
2023/08/10 13:34:27;;;;;;;9.10;2.20;;;;;;;;;;4970734;28;20038;-72
2023/08/10 13:36:53;;;;;;;6.45;1.85;;;;;;;;;;4969452;28;20518;-72
2023/08/10 13:39:24;;;;;;;8.15;1.98;;;;;;;;;;4971855;28;20082;-71
2023/08/10 13:41:51;;;;;;;8.57;2.00;;;;;;;;;;4969483;28;20521;-70
2023/08/10 13:44:17;;;;;;;8.57;2.55;;;;;;;;;;4972113;28;20445;-71
2023/08/10 13:46:43;;;;;;;8.27;2.40;;;;;;;;;;4970801;28;20696;-71
2023/08/10 13:49:11;;;;;;;11.68;2.28;;;;;;;;;;4970221;28;20116;-72
2023/08/10 13:51:37;;;;;;;9.90;2.42;;;;;;;;;;4972236;28;20095;-70
2023/08/10 13:54:04;;;;;;;6.70;1.92;;;;;;;;;;4969024;28;20137;-71
2023/08/10 13:56:50;;;;;;;7.80;2.22;;;;;;;;;;4972304;28;20026;-72
2023/08/10 13:59:16;;;;;;;9.68;1.90;;;;;;;;;;4972894;28;20615;-71
2023/08/10 14:01:43;;;;;;;7.75;2.15;;;;;;;;;;4970348;28;20918;-73
2023/08/10 14:04:10;;;;;;;7.80;2.05;;;;;;;;;;4969495;28;20037;-71
2023/08/10 14:06:37;;;;;;;8.45;2.20;;;;;;;;;;4974911;28;20064;-72
2023/08/10 14:09:03;;;;;;;8.52;2.00;;;;;;;;;;4965652;28;20025;-71
2023/08/10 14:11:29;;;;;;;8.45;1.83;;;;;;;;;;4966460;28;20467;-72
2023/08/10 14:13:55;;;;;;;8.48;1.98;;;;;;;;;;4969315;28;20026;-72
2023/08/10 14:16:21;;;;;;;9.23;2.08;;;;;;;;;;4971989;28;20507;-72
2023/08/10 14:18:47;;;;;;;8.07;1.80;;;;;;;;;;4973819;28;20109;-71
2023/08/10 14:21:13;;;;;;;7.18;2.17;;;;;;;;;;4985209;28;20049;-72
2023/08/10 14:23:40;;;;;;;8.20;2.10;;;;;;;;;;4971287;28;20392;-72
2023/08/10 14:26:06;;;;;;;7.25;1.92;;;;;;;;;;4966941;28;20373;-71
2023/08/10 14:28:32;;;;;;;9.05;2.40;;;;;;;;;;4969224;28;20038;-71
2023/08/10 14:30:58;;;;;;;8.32;2.03;;;;;;;;;;4989966;28;20068;-72
2023/08/10 14:33:24;;;;;;;7.53;2.20;;;;;;;;;;4970470;28;20022;-73
2023/08/10 14:35:50;;;;;;;6.72;1.83;;;;;;;;;;5006267;28;20158;-71
2023/08/10 14:38:16;;;;;;;11.38;2.30;;;;;;;;;;5011990;28;20128;-72